sensor_id;sensor_type;location;lat;lon;timestamp;temperature;humidity
423;DHT22;198;48.752;9.180;2022-08-19T00:01:25;21.90;99.90
423;DHT22;198;48.752;9.180;2022-08-19T00:03:51;21.90;99.90
423;DHT22;198;48.752;9.180;2022-08-19T00:06:16;21.80;99.90
423;DHT22;198;48.752;9.180;2022-08-19T00:08:42;21.90;99.90
423;DHT22;198;48.752;9.180;2022-08-19T00:11:08;21.80;99.90
423;DHT22;198;48.752;9.180;2022-08-19T00:13:34;21.80;99.90
423;DHT22;198;48.752;9.180;2022-08-19T00:16:00;21.80;99.90
423;DHT22;198;48.752;9.180;2022-08-19T00:18:26;21.90;99.90
423;DHT22;198;48.752;9.180;2022-08-19T00:20:51;21.90;99.90
423;DHT22;198;48.752;9.180;2022-08-19T00:23:18;21.80;99.90
423;DHT22;198;48.752;9.180;2022-08-19T00:25:44;21.80;99.90
423;DHT22;198;48.752;9.180;2022-08-19T00:28:09;21.90;99.90
423;DHT22;198;48.752;9.180;2022-08-19T00:30:35;21.80;99.90
423;DHT22;198;48.752;9.180;2022-08-19T00:33:00;21.80;99.90
423;DHT22;198;48.752;9.180;2022-08-19T00:35:26;21.80;99.90
423;DHT22;198;48.752;9.180;2022-08-19T00:37:53;21.80;99.90
423;DHT22;198;48.752;9.180;2022-08-19T00:40:19;21.80;99.90
423;DHT22;198;48.752;9.180;2022-08-19T00:42:45;21.80;99.90
423;DHT22;198;48.752;9.180;2022-08-19T00:45:16;21.70;99.90
423;DHT22;198;48.752;9.180;2022-08-19T00:47:43;21.70;99.90
423;DHT22;198;48.752;9.180;2022-08-19T00:50:10;21.60;99.90
423;DHT22;198;48.752;9.180;2022-08-19T00:52:42;21.60;99.90
423;DHT22;198;48.752;9.180;2022-08-19T00:55:12;21.60;99.90
423;DHT22;198;48.752;9.180;2022-08-19T00:57:41;21.60;99.90
423;DHT22;198;48.752;9.180;2022-08-19T01:00:12;21.60;99.90
423;DHT22;198;48.752;9.180;2022-08-19T01:02:40;21.70;99.90
423;DHT22;198;48.752;9.180;2022-08-19T01:05:10;21.60;99.90
423;DHT22;198;48.752;9.180;2022-08-19T01:07:37;21.60;99.90
423;DHT22;198;48.752;9.180;2022-08-19T01:10:05;21.60;99.90
423;DHT22;198;48.752;9.180;2022-08-19T01:12:31;21.60;99.90
423;DHT22;198;48.752;9.180;2022-08-19T01:14:57;21.60;99.90
423;DHT22;198;48.752;9.180;2022-08-19T01:17:23;21.60;99.90
423;DHT22;198;48.752;9.180;2022-08-19T01:19:49;21.60;99.90
423;DHT22;198;48.752;9.180;2022-08-19T01:22:41;21.60;99.90
423;DHT22;198;48.752;9.180;2022-08-19T01:25:08;21.50;99.90
423;DHT22;198;48.752;9.180;2022-08-19T01:27:42;21.50;99.90
423;DHT22;198;48.752;9.180;2022-08-19T01:30:13;21.60;99.90
423;DHT22;198;48.752;9.180;2022-08-19T01:32:38;21.50;99.90
423;DHT22;198;48.752;9.180;2022-08-19T01:35:04;21.50;99.90
423;DHT22;198;48.752;9.180;2022-08-19T01:37:40;21.50;99.90
423;DHT22;198;48.752;9.180;2022-08-19T01:40:06;21.50;99.90
423;DHT22;198;48.752;9.180;2022-08-19T01:42:33;21.50;99.90
423;DHT22;198;48.752;9.180;2022-08-19T01:45:00;21.50;99.90
423;DHT22;198;48.752;9.180;2022-08-19T01:47:26;21.50;99.90
423;DHT22;198;48.752;9.180;2022-08-19T01:49:51;21.50;99.90
423;DHT22;198;48.752;9.180;2022-08-19T01:52:17;21.50;99.90
423;DHT22;198;48.752;9.180;2022-08-19T01:54:42;21.50;99.90
423;DHT22;198;48.752;9.180;2022-08-19T01:57:11;21.50;99.90
423;DHT22;198;48.752;9.180;2022-08-19T01:59:37;21.50;99.90
423;DHT22;198;48.752;9.180;2022-08-19T02:02:05;21.50;99.90
423;DHT22;198;48.752;9.180;2022-08-19T02:04:33;21.50;99.90
423;DHT22;198;48.752;9.180;2022-08-19T02:06:59;21.40;99.90
423;DHT22;198;48.752;9.180;2022-08-19T02:09:24;21.50;99.90
423;DHT22;198;48.752;9.180;2022-08-19T02:11:50;21.50;99.90
423;DHT22;198;48.752;9.180;2022-08-19T02:14:15;21.40;99.90
423;DHT22;198;48.752;9.180;2022-08-19T02:16:41;21.30;99.90
423;DHT22;198;48.752;9.180;2022-08-19T02:19:07;21.30;99.90
423;DHT22;198;48.752;9.180;2022-08-19T02:21:33;21.30;99.90
423;DHT22;198;48.752;9.180;2022-08-19T02:23:58;21.30;99.90
423;DHT22;198;48.752;9.180;2022-08-19T02:26:24;21.20;99.90
423;DHT22;198;48.752;9.180;2022-08-19T02:28:51;21.20;99.90
423;DHT22;198;48.752;9.180;2022-08-19T02:31:20;21.30;99.90
423;DHT22;198;48.752;9.180;2022-08-19T02:33:47;21.20;99.90
423;DHT22;198;48.752;9.180;2022-08-19T02:36:14;21.20;99.90
423;DHT22;198;48.752;9.180;2022-08-19T02:38:40;21.20;99.90
423;DHT22;198;48.752;9.180;2022-08-19T02:41:12;21.20;99.90
423;DHT22;198;48.752;9.180;2022-08-19T02:43:38;21.20;99.90
423;DHT22;198;48.752;9.180;2022-08-19T02:46:17;21.10;99.90
423;DHT22;198;48.752;9.180;2022-08-19T02:48:49;21.10;99.90
423;DHT22;198;48.752;9.180;2022-08-19T02:51:18;21.00;99.90
423;DHT22;198;48.752;9.180;2022-08-19T02:53:44;21.00;99.90
423;DHT22;198;48.752;9.180;2022-08-19T02:56:10;21.00;99.90
423;DHT22;198;48.752;9.180;2022-08-19T02:58:35;21.00;99.90
423;DHT22;198;48.752;9.180;2022-08-19T03:01:01;21.00;99.90
423;DHT22;198;48.752;9.180;2022-08-19T03:03:27;21.00;99.90
423;DHT22;198;48.752;9.180;2022-08-19T03:06:03;20.90;99.90
423;DHT22;198;48.752;9.180;2022-08-19T03:08:29;20.90;99.90
423;DHT22;198;48.752;9.180;2022-08-19T03:10:55;20.90;99.90
423;DHT22;198;48.752;9.180;2022-08-19T03:13:20;20.90;99.90
423;DHT22;198;48.752;9.180;2022-08-19T03:15:47;20.80;99.90
423;DHT22;198;48.752;9.180;2022-08-19T03:18:14;20.80;99.90
423;DHT22;198;48.752;9.180;2022-08-19T03:20:44;20.70;99.90
423;DHT22;198;48.752;9.180;2022-08-19T03:23:11;20.60;99.90
423;DHT22;198;48.752;9.180;2022-08-19T03:25:43;20.60;99.90
423;DHT22;198;48.752;9.180;2022-08-19T03:28:13;20.60;99.90
423;DHT22;198;48.752;9.180;2022-08-19T03:30:41;20.60;99.90
423;DHT22;198;48.752;9.180;2022-08-19T03:33:09;20.60;99.90
423;DHT22;198;48.752;9.180;2022-08-19T03:35:35;20.60;99.90
423;DHT22;198;48.752;9.180;2022-08-19T03:38:05;20.60;99.90
423;DHT22;198;48.752;9.180;2022-08-19T03:40:32;20.60;99.90
423;DHT22;198;48.752;9.180;2022-08-19T03:42:57;20.60;99.90
423;DHT22;198;48.752;9.180;2022-08-19T03:45:23;20.60;99.90
423;DHT22;198;48.752;9.180;2022-08-19T03:47:49;20.60;99.90
423;DHT22;198;48.752;9.180;2022-08-19T03:50:15;20.60;99.90
423;DHT22;198;48.752;9.180;2022-08-19T03:52:41;20.50;99.90
423;DHT22;198;48.752;9.180;2022-08-19T03:55:07;20.50;99.90
423;DHT22;198;48.752;9.180;2022-08-19T03:57:33;20.50;99.90
423;DHT22;198;48.752;9.180;2022-08-19T03:59:59;20.50;99.90
423;DHT22;198;48.752;9.180;2022-08-19T04:02:25;20.50;99.90
423;DHT22;198;48.752;9.180;2022-08-19T04:04:53;20.40;99.90
423;DHT22;198;48.752;9.180;2022-08-19T04:07:20;20.40;99.90
423;DHT22;198;48.752;9.180;2022-08-19T04:09:47;20.40;99.90
423;DHT22;198;48.752;9.180;2022-08-19T04:12:13;20.40;99.90
423;DHT22;198;48.752;9.180;2022-08-19T04:14:38;20.40;99.90
423;DHT22;198;48.752;9.180;2022-08-19T04:17:05;20.50;99.90
423;DHT22;198;48.752;9.180;2022-08-19T04:19:32;20.50;99.90
423;DHT22;198;48.752;9.180;2022-08-19T04:21:58;20.50;99.90
423;DHT22;198;48.752;9.180;2022-08-19T04:24:24;20.50;99.90
423;DHT22;198;48.752;9.180;2022-08-19T04:26:50;20.50;99.90
423;DHT22;198;48.752;9.180;2022-08-19T04:29:21;20.50;99.90
423;DHT22;198;48.752;9.180;2022-08-19T04:31:50;20.50;99.90
423;DHT22;198;48.752;9.180;2022-08-19T04:34:19;20.50;99.90
423;DHT22;198;48.752;9.180;2022-08-19T04:36:47;20.40;99.90
423;DHT22;198;48.752;9.180;2022-08-19T04:39:18;20.40;99.90
423;DHT22;198;48.752;9.180;2022-08-19T04:41:44;20.40;99.90
423;DHT22;198;48.752;9.180;2022-08-19T04:44:33;20.40;99.90
423;DHT22;198;48.752;9.180;2022-08-19T04:46:59;20.40;99.90
423;DHT22;198;48.752;9.180;2022-08-19T04:49:25;20.40;99.90
423;DHT22;198;48.752;9.180;2022-08-19T04:51:52;20.30;99.90
423;DHT22;198;48.752;9.180;2022-08-19T04:54:22;20.30;99.90
423;DHT22;198;48.752;9.180;2022-08-19T04:56:49;20.30;99.90
423;DHT22;198;48.752;9.180;2022-08-19T04:59:15;20.20;99.90
423;DHT22;198;48.752;9.180;2022-08-19T05:01:42;20.20;99.90
423;DHT22;198;48.752;9.180;2022-08-19T05:04:09;20.20;99.90
423;DHT22;198;48.752;9.180;2022-08-19T05:06:35;20.20;99.90
423;DHT22;198;48.752;9.180;2022-08-19T05:09:04;20.30;99.90
423;DHT22;198;48.752;9.180;2022-08-19T05:11:33;20.30;99.90
423;DHT22;198;48.752;9.180;2022-08-19T05:13:58;20.40;99.90
423;DHT22;198;48.752;9.180;2022-08-19T05:16:25;20.40;99.90
423;DHT22;198;48.752;9.180;2022-08-19T05:18:51;20.30;99.90
423;DHT22;198;48.752;9.180;2022-08-19T05:21:36;20.40;99.90
423;DHT22;198;48.752;9.180;2022-08-19T05:24:22;20.40;99.90
423;DHT22;198;48.752;9.180;2022-08-19T05:26:49;20.40;99.90
423;DHT22;198;48.752;9.180;2022-08-19T05:29:18;20.40;99.90
423;DHT22;198;48.752;9.180;2022-08-19T05:31:46;20.50;99.90
423;DHT22;198;48.752;9.180;2022-08-19T05:34:15;20.50;99.90
423;DHT22;198;48.752;9.180;2022-08-19T05:36:42;20.50;99.90
423;DHT22;198;48.752;9.180;2022-08-19T05:39:11;20.40;99.90
423;DHT22;198;48.752;9.180;2022-08-19T05:41:44;20.40;99.90
423;DHT22;198;48.752;9.180;2022-08-19T05:44:09;20.40;99.90
423;DHT22;198;48.752;9.180;2022-08-19T05:46:36;20.50;99.90
423;DHT22;198;48.752;9.180;2022-08-19T05:49:04;20.50;99.90
423;DHT22;198;48.752;9.180;2022-08-19T05:51:30;20.50;99.90
423;DHT22;198;48.752;9.180;2022-08-19T05:53:55;20.60;99.90
423;DHT22;198;48.752;9.180;2022-08-19T05:56:21;20.60;99.90
423;DHT22;198;48.752;9.180;2022-08-19T05:58:46;20.60;99.90
423;DHT22;198;48.752;9.180;2022-08-19T06:01:15;20.60;99.90
423;DHT22;198;48.752;9.180;2022-08-19T06:03:41;20.60;99.90
423;DHT22;198;48.752;9.180;2022-08-19T06:06:08;20.60;99.90
423;DHT22;198;48.752;9.180;2022-08-19T06:08:35;20.70;99.90
423;DHT22;198;48.752;9.180;2022-08-19T06:13:46;20.70;99.90
423;DHT22;198;48.752;9.180;2022-08-19T06:16:14;20.70;99.90
423;DHT22;198;48.752;9.180;2022-08-19T06:18:46;20.70;99.90
423;DHT22;198;48.752;9.180;2022-08-19T06:21:11;20.70;99.90
423;DHT22;198;48.752;9.180;2022-08-19T06:23:38;20.70;99.90
423;DHT22;198;48.752;9.180;2022-08-19T06:26:04;20.60;99.90
423;DHT22;198;48.752;9.180;2022-08-19T06:28:30;20.60;99.90
423;DHT22;198;48.752;9.180;2022-08-19T06:30:55;20.60;99.90
423;DHT22;198;48.752;9.180;2022-08-19T06:33:21;20.70;99.90
423;DHT22;198;48.752;9.180;2022-08-19T06:35:46;20.80;99.90
423;DHT22;198;48.752;9.180;2022-08-19T06:38:12;20.80;99.90
423;DHT22;198;48.752;9.180;2022-08-19T06:40:37;20.80;99.90
423;DHT22;198;48.752;9.180;2022-08-19T06:43:03;20.70;99.90
423;DHT22;198;48.752;9.180;2022-08-19T06:45:29;20.70;99.90
423;DHT22;198;48.752;9.180;2022-08-19T06:47:55;20.70;99.90
423;DHT22;198;48.752;9.180;2022-08-19T06:50:22;20.70;99.90
423;DHT22;198;48.752;9.180;2022-08-19T06:52:48;20.80;99.90
423;DHT22;198;48.752;9.180;2022-08-19T06:55:14;20.80;99.90
423;DHT22;198;48.752;9.180;2022-08-19T06:57:41;20.80;99.90
423;DHT22;198;48.752;9.180;2022-08-19T07:00:08;20.70;99.90
423;DHT22;198;48.752;9.180;2022-08-19T07:02:43;20.60;99.90
423;DHT22;198;48.752;9.180;2022-08-19T07:05:09;20.70;99.90
423;DHT22;198;48.752;9.180;2022-08-19T07:07:34;20.70;99.90
423;DHT22;198;48.752;9.180;2022-08-19T07:10:00;20.70;99.90
423;DHT22;198;48.752;9.180;2022-08-19T07:12:28;20.70;99.90
423;DHT22;198;48.752;9.180;2022-08-19T07:14:54;20.70;99.90
423;DHT22;198;48.752;9.180;2022-08-19T07:17:19;20.60;99.90
423;DHT22;198;48.752;9.180;2022-08-19T07:19:45;20.50;99.90
423;DHT22;198;48.752;9.180;2022-08-19T07:22:11;20.50;99.90
423;DHT22;198;48.752;9.180;2022-08-19T07:24:37;20.40;99.90
423;DHT22;198;48.752;9.180;2022-08-19T07:27:05;20.50;99.90
423;DHT22;198;48.752;9.180;2022-08-19T07:29:32;20.50;99.90
423;DHT22;198;48.752;9.180;2022-08-19T07:32:00;20.50;99.90
423;DHT22;198;48.752;9.180;2022-08-19T07:34:27;20.50;99.90
423;DHT22;198;48.752;9.180;2022-08-19T07:36:54;20.40;99.90
423;DHT22;198;48.752;9.180;2022-08-19T07:39:23;20.50;99.90
423;DHT22;198;48.752;9.180;2022-08-19T07:41:49;20.50;99.90
423;DHT22;198;48.752;9.180;2022-08-19T07:44:16;20.50;99.90
423;DHT22;198;48.752;9.180;2022-08-19T07:46:44;20.40;99.90
423;DHT22;198;48.752;9.180;2022-08-19T07:49:12;20.30;99.90
423;DHT22;198;48.752;9.180;2022-08-19T07:51:43;20.30;99.90
423;DHT22;198;48.752;9.180;2022-08-19T07:54:09;20.40;99.90
423;DHT22;198;48.752;9.180;2022-08-19T07:56:35;20.40;99.90
423;DHT22;198;48.752;9.180;2022-08-19T07:59:00;20.50;99.90
423;DHT22;198;48.752;9.180;2022-08-19T08:01:27;20.50;99.90
423;DHT22;198;48.752;9.180;2022-08-19T08:03:54;20.50;99.90
423;DHT22;198;48.752;9.180;2022-08-19T08:06:39;20.40;99.90
423;DHT22;198;48.752;9.180;2022-08-19T08:09:27;20.40;99.90
423;DHT22;198;48.752;9.180;2022-08-19T08:11:58;20.40;99.90
423;DHT22;198;48.752;9.180;2022-08-19T08:14:28;20.40;99.90
423;DHT22;198;48.752;9.180;2022-08-19T08:16:53;20.40;99.90
423;DHT22;198;48.752;9.180;2022-08-19T08:19:21;20.40;99.90
423;DHT22;198;48.752;9.180;2022-08-19T08:21:48;20.40;99.90
423;DHT22;198;48.752;9.180;2022-08-19T08:24:14;20.40;99.90
423;DHT22;198;48.752;9.180;2022-08-19T08:26:40;20.40;99.90
423;DHT22;198;48.752;9.180;2022-08-19T08:29:06;20.30;99.90
423;DHT22;198;48.752;9.180;2022-08-19T08:31:36;20.30;99.90
423;DHT22;198;48.752;9.180;2022-08-19T08:34:01;20.30;99.90
423;DHT22;198;48.752;9.180;2022-08-19T08:36:27;20.30;99.90
423;DHT22;198;48.752;9.180;2022-08-19T08:38:53;20.30;99.90
423;DHT22;198;48.752;9.180;2022-08-19T08:43:49;20.30;99.90
423;DHT22;198;48.752;9.180;2022-08-19T08:46:34;20.30;99.90
423;DHT22;198;48.752;9.180;2022-08-19T08:49:32;20.30;99.90
423;DHT22;198;48.752;9.180;2022-08-19T08:52:04;20.30;99.90
423;DHT22;198;48.752;9.180;2022-08-19T08:54:37;20.30;99.90
423;DHT22;198;48.752;9.180;2022-08-19T08:57:09;20.30;99.90
423;DHT22;198;48.752;9.180;2022-08-19T08:59:39;20.40;99.90
423;DHT22;198;48.752;9.180;2022-08-19T09:02:07;20.60;99.90
423;DHT22;198;48.752;9.180;2022-08-19T09:04:35;20.60;99.90
423;DHT22;198;48.752;9.180;2022-08-19T09:09:49;20.70;99.90
423;DHT22;198;48.752;9.180;2022-08-19T09:15:07;20.70;99.90
423;DHT22;198;48.752;9.180;2022-08-19T09:17:34;20.70;99.90
423;DHT22;198;48.752;9.180;2022-08-19T09:22:32;20.90;99.90
423;DHT22;198;48.752;9.180;2022-08-19T09:24:58;20.90;99.90
423;DHT22;198;48.752;9.180;2022-08-19T09:27:28;20.90;99.90
423;DHT22;198;48.752;9.180;2022-08-19T09:29:54;20.90;99.90
423;DHT22;198;48.752;9.180;2022-08-19T09:32:21;21.00;99.90
423;DHT22;198;48.752;9.180;2022-08-19T09:34:47;21.10;99.90
423;DHT22;198;48.752;9.180;2022-08-19T09:37:13;21.10;99.90
423;DHT22;198;48.752;9.180;2022-08-19T09:39:39;21.00;99.90
423;DHT22;198;48.752;9.180;2022-08-19T09:42:09;21.10;99.90
423;DHT22;198;48.752;9.180;2022-08-19T09:44:38;21.00;99.90
423;DHT22;198;48.752;9.180;2022-08-19T09:47:04;21.10;99.90
423;DHT22;198;48.752;9.180;2022-08-19T09:49:30;21.10;99.90
423;DHT22;198;48.752;9.180;2022-08-19T09:51:56;21.10;99.90
423;DHT22;198;48.752;9.180;2022-08-19T09:54:22;21.10;99.90
423;DHT22;198;48.752;9.180;2022-08-19T09:56:48;21.10;99.90
423;DHT22;198;48.752;9.180;2022-08-19T09:59:14;21.20;99.90
423;DHT22;198;48.752;9.180;2022-08-19T10:01:40;21.30;99.90
423;DHT22;198;48.752;9.180;2022-08-19T10:04:05;21.30;99.90
423;DHT22;198;48.752;9.180;2022-08-19T10:06:35;21.30;99.90
423;DHT22;198;48.752;9.180;2022-08-19T10:09:01;21.20;99.90
423;DHT22;198;48.752;9.180;2022-08-19T10:11:29;21.30;99.90
423;DHT22;198;48.752;9.180;2022-08-19T10:13:55;21.40;99.90
423;DHT22;198;48.752;9.180;2022-08-19T10:16:23;21.40;99.90
423;DHT22;198;48.752;9.180;2022-08-19T10:18:49;21.40;99.90
423;DHT22;198;48.752;9.180;2022-08-19T10:23:47;21.50;99.90
423;DHT22;198;48.752;9.180;2022-08-19T10:26:18;21.50;99.90
423;DHT22;198;48.752;9.180;2022-08-19T10:28:44;21.60;99.90
423;DHT22;198;48.752;9.180;2022-08-19T10:31:12;21.60;99.90
423;DHT22;198;48.752;9.180;2022-08-19T10:33:39;21.70;99.90
423;DHT22;198;48.752;9.180;2022-08-19T10:36:09;21.70;99.90
423;DHT22;198;48.752;9.180;2022-08-19T10:38:35;21.70;99.90
423;DHT22;198;48.752;9.180;2022-08-19T10:41:13;21.80;99.90
423;DHT22;198;48.752;9.180;2022-08-19T10:43:40;21.90;99.90
423;DHT22;198;48.752;9.180;2022-08-19T10:46:08;22.00;99.90
423;DHT22;198;48.752;9.180;2022-08-19T10:48:33;22.10;99.90
423;DHT22;198;48.752;9.180;2022-08-19T10:51:00;22.20;99.90
423;DHT22;198;48.752;9.180;2022-08-19T10:53:44;22.30;99.90
423;DHT22;198;48.752;9.180;2022-08-19T10:56:10;22.40;99.90
423;DHT22;198;48.752;9.180;2022-08-19T10:58:54;22.40;99.90
423;DHT22;198;48.752;9.180;2022-08-19T11:01:23;22.40;99.90
423;DHT22;198;48.752;9.180;2022-08-19T11:03:49;22.40;99.90
423;DHT22;198;48.752;9.180;2022-08-19T11:06:15;22.40;99.90
423;DHT22;198;48.752;9.180;2022-08-19T11:08:40;22.50;99.90
423;DHT22;198;48.752;9.180;2022-08-19T11:11:07;22.50;99.90
423;DHT22;198;48.752;9.180;2022-08-19T11:13:35;22.40;99.90
423;DHT22;198;48.752;9.180;2022-08-19T11:18:30;22.10;99.90
423;DHT22;198;48.752;9.180;2022-08-19T11:21:15;22.10;99.90
423;DHT22;198;48.752;9.180;2022-08-19T11:23:43;22.10;99.90
423;DHT22;198;48.752;9.180;2022-08-19T11:26:09;22.00;99.90
423;DHT22;198;48.752;9.180;2022-08-19T11:28:35;22.10;99.90
423;DHT22;198;48.752;9.180;2022-08-19T11:31:01;22.20;99.90
423;DHT22;198;48.752;9.180;2022-08-19T11:33:29;22.30;99.90
423;DHT22;198;48.752;9.180;2022-08-19T11:35:57;22.50;99.90
423;DHT22;198;48.752;9.180;2022-08-19T11:38:23;22.80;99.90
423;DHT22;198;48.752;9.180;2022-08-19T11:41:00;23.00;99.90
423;DHT22;198;48.752;9.180;2022-08-19T11:43:26;23.10;99.90
423;DHT22;198;48.752;9.180;2022-08-19T11:45:56;23.20;99.90
423;DHT22;198;48.752;9.180;2022-08-19T11:48:22;23.30;99.90
423;DHT22;198;48.752;9.180;2022-08-19T11:50:52;23.40;99.90
423;DHT22;198;48.752;9.180;2022-08-19T11:53:20;23.50;99.90
423;DHT22;198;48.752;9.180;2022-08-19T11:55:47;23.50;99.90
423;DHT22;198;48.752;9.180;2022-08-19T11:58:14;23.60;99.90
423;DHT22;198;48.752;9.180;2022-08-19T12:00:41;23.60;99.90
423;DHT22;198;48.752;9.180;2022-08-19T12:03:07;23.50;99.90
423;DHT22;198;48.752;9.180;2022-08-19T12:05:32;23.60;99.90
423;DHT22;198;48.752;9.180;2022-08-19T12:07:58;23.70;99.90
423;DHT22;198;48.752;9.180;2022-08-19T12:10:24;23.90;99.90
423;DHT22;198;48.752;9.180;2022-08-19T12:12:49;24.00;99.90
423;DHT22;198;48.752;9.180;2022-08-19T12:15:15;24.10;99.90
423;DHT22;198;48.752;9.180;2022-08-19T12:17:41;24.10;99.90
423;DHT22;198;48.752;9.180;2022-08-19T12:20:09;24.00;99.90
423;DHT22;198;48.752;9.180;2022-08-19T12:22:36;24.00;99.90
423;DHT22;198;48.752;9.180;2022-08-19T12:25:04;24.00;99.90
423;DHT22;198;48.752;9.180;2022-08-19T12:27:30;23.90;99.90
423;DHT22;198;48.752;9.180;2022-08-19T12:29:55;23.80;99.90
423;DHT22;198;48.752;9.180;2022-08-19T12:32:22;23.70;99.90
423;DHT22;198;48.752;9.180;2022-08-19T12:34:49;23.70;99.90
423;DHT22;198;48.752;9.180;2022-08-19T12:37:14;23.70;99.90
423;DHT22;198;48.752;9.180;2022-08-19T12:39:41;23.80;99.90
423;DHT22;198;48.752;9.180;2022-08-19T12:42:08;23.80;99.90
423;DHT22;198;48.752;9.180;2022-08-19T12:44:35;23.80;99.90
423;DHT22;198;48.752;9.180;2022-08-19T12:47:01;23.60;99.90
423;DHT22;198;48.752;9.180;2022-08-19T12:49:30;23.60;99.90
423;DHT22;198;48.752;9.180;2022-08-19T12:52:05;23.50;99.90
423;DHT22;198;48.752;9.180;2022-08-19T12:54:30;23.30;99.90
423;DHT22;198;48.752;9.180;2022-08-19T12:56:57;23.30;99.90
423;DHT22;198;48.752;9.180;2022-08-19T12:59:23;23.20;99.90
423;DHT22;198;48.752;9.180;2022-08-19T13:01:49;23.30;99.90
423;DHT22;198;48.752;9.180;2022-08-19T13:04:14;23.30;99.90
423;DHT22;198;48.752;9.180;2022-08-19T13:06:42;23.30;99.90
423;DHT22;198;48.752;9.180;2022-08-19T13:09:07;23.40;99.90
423;DHT22;198;48.752;9.180;2022-08-19T13:11:34;23.40;99.90
423;DHT22;198;48.752;9.180;2022-08-19T13:14:01;23.60;99.90
423;DHT22;198;48.752;9.180;2022-08-19T13:16:27;23.70;99.90
423;DHT22;198;48.752;9.180;2022-08-19T13:18:55;23.80;99.90
423;DHT22;198;48.752;9.180;2022-08-19T13:21:22;23.80;99.90
423;DHT22;198;48.752;9.180;2022-08-19T13:23:49;23.80;99.90
423;DHT22;198;48.752;9.180;2022-08-19T13:26:16;23.70;99.90
423;DHT22;198;48.752;9.180;2022-08-19T13:28:42;23.50;99.90
423;DHT22;198;48.752;9.180;2022-08-19T13:31:29;23.30;99.90
423;DHT22;198;48.752;9.180;2022-08-19T13:34:14;23.10;99.90
423;DHT22;198;48.752;9.180;2022-08-19T13:36:40;23.00;99.90
423;DHT22;198;48.752;9.180;2022-08-19T13:39:07;22.70;99.90
423;DHT22;198;48.752;9.180;2022-08-19T13:41:34;22.60;99.90
423;DHT22;198;48.752;9.180;2022-08-19T13:44:00;22.60;99.90
423;DHT22;198;48.752;9.180;2022-08-19T13:46:27;22.50;99.90
423;DHT22;198;48.752;9.180;2022-08-19T13:48:54;22.40;99.90
423;DHT22;198;48.752;9.180;2022-08-19T13:51:20;22.40;99.90
423;DHT22;198;48.752;9.180;2022-08-19T13:53:45;22.30;99.90
423;DHT22;198;48.752;9.180;2022-08-19T13:56:17;22.20;99.90
423;DHT22;198;48.752;9.180;2022-08-19T13:58:43;22.10;99.90
423;DHT22;198;48.752;9.180;2022-08-19T14:01:10;22.10;99.90
423;DHT22;198;48.752;9.180;2022-08-19T14:03:36;21.90;99.90
423;DHT22;198;48.752;9.180;2022-08-19T14:06:02;21.80;99.90
423;DHT22;198;48.752;9.180;2022-08-19T14:08:27;21.70;99.90
423;DHT22;198;48.752;9.180;2022-08-19T14:10:54;21.70;99.90
423;DHT22;198;48.752;9.180;2022-08-19T14:13:21;21.60;99.90
423;DHT22;198;48.752;9.180;2022-08-19T14:15:48;21.40;99.90
423;DHT22;198;48.752;9.180;2022-08-19T14:18:15;21.40;99.90
423;DHT22;198;48.752;9.180;2022-08-19T14:20:41;21.50;99.90
423;DHT22;198;48.752;9.180;2022-08-19T14:23:07;21.50;99.90
423;DHT22;198;48.752;9.180;2022-08-19T14:25:33;21.50;99.90
423;DHT22;198;48.752;9.180;2022-08-19T14:27:59;21.50;99.90
423;DHT22;198;48.752;9.180;2022-08-19T14:30:30;21.60;99.90
423;DHT22;198;48.752;9.180;2022-08-19T14:32:57;21.70;99.90
423;DHT22;198;48.752;9.180;2022-08-19T14:35:27;21.90;99.90
423;DHT22;198;48.752;9.180;2022-08-19T14:37:54;21.90;99.90
423;DHT22;198;48.752;9.180;2022-08-19T14:40:22;21.90;99.90
423;DHT22;198;48.752;9.180;2022-08-19T14:42:51;22.00;99.90
423;DHT22;198;48.752;9.180;2022-08-19T14:45:17;22.00;99.90
423;DHT22;198;48.752;9.180;2022-08-19T14:47:42;22.20;99.90
423;DHT22;198;48.752;9.180;2022-08-19T14:50:10;22.40;99.90
423;DHT22;198;48.752;9.180;2022-08-19T14:52:36;22.70;99.90
423;DHT22;198;48.752;9.180;2022-08-19T14:55:03;22.90;99.90
423;DHT22;198;48.752;9.180;2022-08-19T14:57:28;23.00;99.90
423;DHT22;198;48.752;9.180;2022-08-19T14:59:54;23.00;99.90
423;DHT22;198;48.752;9.180;2022-08-19T15:02:19;23.10;99.90
423;DHT22;198;48.752;9.180;2022-08-19T15:04:45;23.10;99.90
423;DHT22;198;48.752;9.180;2022-08-19T15:07:11;23.10;99.90
423;DHT22;198;48.752;9.180;2022-08-19T15:09:36;23.00;99.90
423;DHT22;198;48.752;9.180;2022-08-19T15:12:02;22.90;99.90
423;DHT22;198;48.752;9.180;2022-08-19T15:14:29;22.90;99.90
423;DHT22;198;48.752;9.180;2022-08-19T15:16:59;23.00;99.90
423;DHT22;198;48.752;9.180;2022-08-19T15:19:24;23.00;99.90
423;DHT22;198;48.752;9.180;2022-08-19T15:21:50;23.00;99.90
423;DHT22;198;48.752;9.180;2022-08-19T15:24:15;23.20;99.90
423;DHT22;198;48.752;9.180;2022-08-19T15:26:41;23.50;99.90
423;DHT22;198;48.752;9.180;2022-08-19T15:29:08;23.50;99.90
423;DHT22;198;48.752;9.180;2022-08-19T15:31:34;23.60;99.90
423;DHT22;198;48.752;9.180;2022-08-19T15:34:02;23.80;99.90
423;DHT22;198;48.752;9.180;2022-08-19T15:36:28;24.10;99.90
423;DHT22;198;48.752;9.180;2022-08-19T15:38:55;24.10;99.90
423;DHT22;198;48.752;9.180;2022-08-19T15:41:24;24.30;99.90
423;DHT22;198;48.752;9.180;2022-08-19T15:46:23;24.30;99.90
423;DHT22;198;48.752;9.180;2022-08-19T15:48:50;24.30;99.90
423;DHT22;198;48.752;9.180;2022-08-19T15:51:16;24.20;99.90
423;DHT22;198;48.752;9.180;2022-08-19T15:53:43;24.20;99.90
423;DHT22;198;48.752;9.180;2022-08-19T15:56:09;24.20;99.90
423;DHT22;198;48.752;9.180;2022-08-19T15:58:35;24.20;99.90
423;DHT22;198;48.752;9.180;2022-08-19T16:01:20;24.30;99.90
423;DHT22;198;48.752;9.180;2022-08-19T16:04:04;24.60;99.90
423;DHT22;198;48.752;9.180;2022-08-19T16:06:54;25.00;99.90
423;DHT22;198;48.752;9.180;2022-08-19T16:09:22;25.40;99.90
423;DHT22;198;48.752;9.180;2022-08-19T16:11:48;26.00;99.90
423;DHT22;198;48.752;9.180;2022-08-19T16:14:16;26.40;99.90
423;DHT22;198;48.752;9.180;2022-08-19T16:16:43;26.70;99.90
423;DHT22;198;48.752;9.180;2022-08-19T16:19:11;27.00;99.90
423;DHT22;198;48.752;9.180;2022-08-19T16:21:44;27.20;99.90
423;DHT22;198;48.752;9.180;2022-08-19T16:24:12;27.10;99.90
423;DHT22;198;48.752;9.180;2022-08-19T16:26:39;26.80;99.90
423;DHT22;198;48.752;9.180;2022-08-19T16:29:06;26.50;99.90
423;DHT22;198;48.752;9.180;2022-08-19T16:31:33;26.40;99.90
423;DHT22;198;48.752;9.180;2022-08-19T16:33:59;26.30;99.90
423;DHT22;198;48.752;9.180;2022-08-19T16:36:25;26.20;99.90
423;DHT22;198;48.752;9.180;2022-08-19T16:38:52;26.00;99.90
423;DHT22;198;48.752;9.180;2022-08-19T16:41:18;25.60;99.90
423;DHT22;198;48.752;9.180;2022-08-19T16:43:44;25.30;99.90
423;DHT22;198;48.752;9.180;2022-08-19T16:46:10;25.00;99.90
423;DHT22;198;48.752;9.180;2022-08-19T16:48:36;24.70;99.90
423;DHT22;198;48.752;9.180;2022-08-19T16:51:08;24.50;99.90
423;DHT22;198;48.752;9.180;2022-08-19T16:53:35;24.20;99.90
423;DHT22;198;48.752;9.180;2022-08-19T16:56:01;24.00;99.90
423;DHT22;198;48.752;9.180;2022-08-19T16:58:28;23.80;99.90